createdAt,value
2023-05-21T00:00:05.051Z,4
2023-05-21T00:02:02.528Z,4
2023-05-21T00:04:02.164Z,4
2023-05-21T00:06:01.804Z,4
2023-05-21T00:08:02.286Z,4
2023-05-21T00:10:02.127Z,4
2023-05-21T00:12:01.713Z,4
2023-05-21T00:14:02.368Z,4
2023-05-21T00:16:01.945Z,4
2023-05-21T00:18:01.589Z,4
2023-05-21T00:20:02.458Z,4
2023-05-21T00:22:01.741Z,4
2023-05-21T00:24:02.389Z,4
2023-05-21T00:26:02.147Z,4
2023-05-21T00:28:01.727Z,4
2023-05-21T00:30:02.485Z,4
2023-05-21T00:32:01.796Z,4
2023-05-21T00:34:02.382Z,2
2023-05-21T00:36:01.991Z,2
2023-05-21T00:38:01.574Z,2
2023-05-21T00:40:02.419Z,2
2023-05-21T00:42:01.895Z,2
2023-05-21T00:44:01.579Z,2
2023-05-21T00:46:02.235Z,2
2023-05-21T00:48:01.943Z,2
2023-05-21T00:50:01.668Z,2
2023-05-21T00:52:02.194Z,2
2023-05-21T00:54:01.876Z,2
2023-05-21T00:56:02.398Z,2
2023-05-21T00:58:02.061Z,2
2023-05-21T01:00:03.573Z,2
2023-05-21T01:02:02.325Z,2
2023-05-21T01:04:01.868Z,2
2023-05-21T01:06:02.383Z,2
2023-05-21T01:08:01.821Z,2
2023-05-21T01:10:01.690Z,4
2023-05-21T01:12:02.055Z,4
2023-05-21T01:14:01.751Z,4
2023-05-21T01:16:02.404Z,2
2023-05-21T01:18:02.061Z,2
2023-05-21T01:20:01.977Z,2
2023-05-21T01:22:01.522Z,2
2023-05-21T01:24:02.206Z,2
2023-05-21T01:26:01.775Z,2
2023-05-21T01:28:02.222Z,4
2023-05-21T01:30:01.965Z,4
2023-05-21T01:32:01.568Z,4
2023-05-21T01:34:02.196Z,2
2023-05-21T01:36:01.638Z,2
2023-05-21T01:38:02.338Z,2
2023-05-21T01:40:02.024Z,2
2023-05-21T01:42:02.464Z,2
2023-05-21T01:44:01.975Z,2
2023-05-21T01:46:01.606Z,4
2023-05-21T01:48:02.296Z,4
2023-05-21T01:50:02.177Z,4
2023-05-21T01:52:01.605Z,2
2023-05-21T01:54:02.180Z,2
2023-05-21T01:56:01.661Z,2
2023-05-21T01:58:02.779Z,4
2023-05-21T02:00:09.125Z,4
2023-05-21T02:02:02.163Z,4
2023-05-21T02:04:01.930Z,4
2023-05-21T02:06:02.190Z,4
2023-05-21T02:08:01.828Z,4
2023-05-21T02:10:02.571Z,4
2023-05-21T02:12:02.176Z,4
2023-05-21T02:14:01.639Z,4
2023-05-21T02:16:02.297Z,4
2023-05-21T02:18:02.014Z,4
2023-05-21T02:20:02.662Z,4
2023-05-21T02:22:02.066Z,4
2023-05-21T02:24:01.664Z,4
2023-05-21T02:26:02.369Z,4
2023-05-21T02:28:01.869Z,2
2023-05-21T02:30:01.773Z,2
2023-05-21T02:32:02.189Z,2
2023-05-21T02:34:01.790Z,2
2023-05-21T02:36:02.408Z,2
2023-05-21T02:38:02.182Z,2
2023-05-21T02:40:01.954Z,2
2023-05-21T02:42:01.525Z,2
2023-05-21T02:44:02.170Z,2
2023-05-21T02:46:01.760Z,2
2023-05-21T02:48:02.566Z,3
2023-05-21T02:50:02.441Z,3
2023-05-21T02:52:02.063Z,3
2023-05-21T02:54:01.707Z,3
2023-05-21T02:56:02.361Z,4
2023-05-21T02:58:01.948Z,4
2023-05-21T03:00:03.854Z,1
2023-05-21T03:02:02.098Z,3
2023-05-21T03:04:01.667Z,3
2023-05-21T03:06:02.226Z,3
2023-05-21T03:08:01.821Z,2
2023-05-21T03:10:02.623Z,2
2023-05-21T03:12:02.082Z,1
2023-05-21T03:14:01.682Z,2
2023-05-21T03:16:02.299Z,2
2023-05-21T03:18:02.064Z,1
2023-05-21T03:20:02.690Z,2
2023-05-21T03:22:02.228Z,2
2023-05-21T03:24:01.770Z,1
2023-05-21T03:26:02.453Z,1
2023-05-21T03:28:02.023Z,1
2023-05-21T03:30:01.748Z,1
2023-05-21T03:32:02.248Z,2
2023-05-21T03:34:01.940Z,2
2023-05-21T03:36:01.543Z,3
2023-05-21T03:38:01.996Z,4
2023-05-21T03:40:02.541Z,4
2023-05-21T03:42:01.954Z,3
2023-05-21T03:44:02.514Z,2
2023-05-21T03:46:02.052Z,2
2023-05-21T03:48:01.803Z,3
2023-05-21T03:50:02.558Z,4
2023-05-21T03:52:02.054Z,4
2023-05-21T03:54:01.780Z,3
2023-05-21T03:56:02.336Z,4
2023-05-21T03:58:02.033Z,4
2023-05-21T04:00:04.972Z,1
2023-05-21T04:02:02.386Z,2
2023-05-21T04:04:02.267Z,2
2023-05-21T04:06:01.871Z,3
2023-05-21T04:08:02.436Z,1
2023-05-21T04:10:02.351Z,1
2023-05-21T04:12:01.920Z,1
2023-05-21T04:14:02.395Z,3
2023-05-21T04:16:02.120Z,3
2023-05-21T04:18:01.596Z,1
2023-05-21T04:20:02.365Z,3
2023-05-21T04:22:01.840Z,3
2023-05-21T04:24:01.516Z,1
2023-05-21T04:26:02.131Z,4
2023-05-21T04:28:01.866Z,4
2023-05-21T04:30:02.521Z,1
2023-05-21T04:32:02.160Z,4
2023-05-21T04:34:01.814Z,4
2023-05-21T04:36:02.491Z,3
2023-05-21T04:38:04.141Z,4
2023-05-21T04:42:02.182Z,1
2023-05-21T04:44:01.861Z,3
2023-05-21T04:46:01.492Z,3
2023-05-21T04:48:02.198Z,3
2023-05-21T04:50:01.920Z,3
2023-05-21T04:52:01.583Z,3
2023-05-21T04:54:02.263Z,3
2023-05-21T04:56:01.897Z,4
2023-05-21T04:58:02.403Z,4
2023-05-21T05:00:07.815Z,1
2023-05-21T05:02:02.421Z,4
2023-05-21T05:04:02.042Z,4
2023-05-21T05:06:01.582Z,3
2023-05-21T05:08:02.269Z,4
2023-05-21T05:12:01.688Z,4
2023-05-21T05:14:02.330Z,4
2023-05-21T05:16:02.087Z,4
2023-05-21T05:18:01.700Z,3
2023-05-21T05:20:02.461Z,3
2023-05-21T05:22:01.816Z,3
2023-05-21T05:24:02.448Z,4
2023-05-21T05:26:02.088Z,3
2023-05-21T05:28:01.628Z,3
2023-05-21T05:30:02.614Z,3
2023-05-21T05:32:01.874Z,5
2023-05-21T05:34:01.555Z,5
2023-05-21T05:36:02.360Z,3
2023-05-21T05:38:01.850Z,4
2023-05-21T05:40:01.687Z,4
2023-05-21T05:42:02.193Z,3
2023-05-21T05:44:01.818Z,4
2023-05-21T05:46:02.443Z,4
2023-05-21T05:48:02.035Z,3
2023-05-21T05:50:01.882Z,4
2023-05-21T05:52:02.358Z,4
2023-05-21T05:54:01.948Z,3
2023-05-21T05:56:02.458Z,4
2023-05-21T05:58:02.070Z,4
2023-05-21T06:00:06.174Z,3
2023-05-21T06:04:02.065Z,3
2023-05-21T06:06:01.769Z,4
2023-05-21T06:08:02.383Z,4
2023-05-21T06:10:02.055Z,4
2023-05-21T06:12:02.488Z,4
2023-05-21T06:14:02.007Z,2
2023-05-21T06:16:02.427Z,2
2023-05-21T06:18:02.118Z,3
2023-05-21T06:20:01.810Z,2
2023-05-21T06:22:02.330Z,2
2023-05-21T06:24:01.664Z,3
2023-05-21T06:26:02.211Z,2
2023-05-21T06:28:01.896Z,2
2023-05-21T06:30:01.749Z,3
2023-05-21T06:32:02.130Z,2
2023-05-21T06:34:01.982Z,2
2023-05-21T06:36:02.396Z,1
2023-05-21T06:38:02.082Z,4
2023-05-21T06:40:01.866Z,4
2023-05-21T06:42:02.480Z,3
2023-05-21T06:44:01.943Z,5
2023-05-21T06:46:01.603Z,5
2023-05-21T06:48:02.079Z,3
2023-05-21T06:50:01.719Z,4
2023-05-21T06:52:02.246Z,4
2023-05-21T06:54:01.787Z,1
2023-05-21T06:56:02.336Z,4
2023-05-21T06:58:02.123Z,4
2023-05-21T07:00:05.842Z,4
2023-05-21T07:04:02.000Z,4
2023-05-21T07:06:01.639Z,3
2023-05-21T07:08:02.266Z,5
2023-05-21T07:10:02.136Z,5
2023-05-21T07:12:01.669Z,3
2023-05-21T07:14:02.378Z,5
2023-05-21T07:16:01.552Z,5
2023-05-21T07:18:02.226Z,4
2023-05-21T07:20:01.956Z,5
2023-05-21T07:22:02.428Z,5
2023-05-21T07:26:01.555Z,5
2023-05-21T07:28:02.937Z,5
2023-05-21T07:30:01.988Z,2
2023-05-21T07:32:01.500Z,4
2023-05-21T07:34:02.192Z,4
2023-05-21T07:36:01.807Z,3
2023-05-21T07:38:02.405Z,5
2023-05-21T07:40:02.153Z,5
2023-05-21T07:42:02.497Z,3
2023-05-21T07:44:01.909Z,4
2023-05-21T07:46:02.438Z,4
2023-05-21T07:48:01.903Z,3
2023-05-21T07:50:02.492Z,4
2023-05-21T07:52:01.864Z,4
2023-05-21T07:54:02.449Z,4
2023-05-21T07:56:01.898Z,5
2023-05-21T07:58:02.329Z,5
2023-05-21T08:00:05.851Z,4
2023-05-21T08:04:01.918Z,5
2023-05-21T08:06:02.400Z,3
2023-05-21T08:08:01.887Z,4
2023-05-21T08:10:03.084Z,4
2023-05-21T08:14:02.417Z,5
2023-05-21T08:16:02.114Z,5
2023-05-21T08:18:02.540Z,3
2023-05-21T08:20:02.153Z,7
2023-05-21T08:22:01.615Z,7
2023-05-21T08:24:02.230Z,7
2023-05-21T08:26:01.639Z,7
2023-05-21T08:28:02.214Z,7
2023-05-21T08:30:02.093Z,4
2023-05-21T08:32:02.498Z,10
2023-05-21T08:34:01.949Z,10
2023-05-21T08:36:01.619Z,9
2023-05-21T08:38:02.151Z,7
2023-05-21T08:40:01.969Z,7
2023-05-21T08:42:02.412Z,7
2023-05-21T08:44:01.996Z,10
2023-05-21T08:46:02.459Z,10
2023-05-21T08:48:01.985Z,6
2023-05-21T08:50:02.718Z,10
2023-05-21T08:52:02.093Z,10
2023-05-21T08:54:01.955Z,6
2023-05-21T08:56:02.346Z,8
2023-05-21T08:58:02.153Z,8
2023-05-21T09:00:05.812Z,6
2023-05-21T09:04:19.073Z,10
2023-05-21T09:06:01.597Z,9
2023-05-21T09:08:01.827Z,10
2023-05-21T09:10:02.336Z,10
2023-05-21T09:12:01.830Z,6
2023-05-21T09:14:02.216Z,7
2023-05-21T09:16:01.795Z,7
2023-05-21T09:18:02.628Z,10
2023-05-21T09:20:02.172Z,10
2023-05-21T09:22:01.580Z,10
2023-05-21T09:24:02.178Z,9
2023-05-21T09:26:01.745Z,13
2023-05-21T09:28:02.273Z,13
2023-05-21T09:30:02.053Z,7
2023-05-21T09:32:02.387Z,10
2023-05-21T09:34:02.057Z,10
2023-05-21T09:36:01.653Z,7
2023-05-21T09:38:02.141Z,13
2023-05-21T09:40:01.896Z,13
2023-05-21T09:42:02.430Z,9
2023-05-21T09:44:01.821Z,10
2023-05-21T09:46:02.367Z,10
2023-05-21T09:48:02.226Z,10
2023-05-21T09:50:01.952Z,14
2023-05-21T09:52:02.305Z,14
2023-05-21T09:54:02.164Z,10
2023-05-21T09:56:01.698Z,10
2023-05-21T09:58:02.345Z,10
2023-05-21T10:00:05.631Z,9
2023-05-21T10:04:02.060Z,12
2023-05-21T10:06:02.544Z,9
2023-05-21T10:08:02.182Z,12
2023-05-21T10:10:01.847Z,12
2023-05-21T10:12:01.486Z,10
2023-05-21T10:14:02.004Z,8
2023-05-21T10:16:01.667Z,8
2023-05-21T10:18:02.195Z,9
2023-05-21T10:20:01.892Z,9
2023-05-21T10:22:02.270Z,9
2023-05-21T10:24:01.901Z,4
2023-05-21T10:26:02.376Z,10
2023-05-21T10:28:02.003Z,10
2023-05-21T10:30:02.622Z,6
2023-05-21T10:32:01.949Z,6
2023-05-21T10:34:01.560Z,6
2023-05-21T10:36:02.375Z,5
2023-05-21T10:38:01.802Z,8
2023-05-21T10:40:02.568Z,8
2023-05-21T10:42:02.046Z,7
2023-05-21T10:44:01.584Z,10
2023-05-21T10:46:02.229Z,10
2023-05-21T10:48:01.713Z,5
2023-05-21T10:50:02.480Z,8
2023-05-21T10:52:01.760Z,8
2023-05-21T10:54:02.295Z,4
2023-05-21T10:56:01.951Z,9
2023-05-21T10:58:02.406Z,9
2023-05-21T11:00:05.056Z,8
2023-05-21T11:04:01.604Z,9
2023-05-21T11:06:02.118Z,7
2023-05-21T11:08:01.661Z,5
2023-05-21T11:10:02.314Z,5
2023-05-21T11:12:01.653Z,8
2023-05-21T11:14:02.009Z,8
2023-05-21T11:16:01.599Z,8
2023-05-21T11:18:02.111Z,4
2023-05-21T11:20:01.802Z,6
2023-05-21T11:22:02.338Z,6
2023-05-21T11:24:01.953Z,6
2023-05-21T11:28:01.936Z,9
2023-05-21T11:30:02.493Z,4
2023-05-21T11:34:01.645Z,5
2023-05-21T11:36:02.129Z,6
2023-05-21T11:38:01.528Z,9
2023-05-21T11:40:02.411Z,9
2023-05-21T11:42:04.428Z,4
2023-05-21T11:46:02.192Z,8
2023-05-21T11:48:01.655Z,2
2023-05-21T11:52:01.785Z,7
2023-05-21T11:54:02.259Z,5
2023-05-21T11:56:01.950Z,7
2023-05-21T11:58:02.397Z,7
2023-05-21T12:00:07.982Z,4
2023-05-21T12:02:01.639Z,5
2023-05-21T12:04:02.383Z,5
2023-05-21T12:06:01.690Z,5
2023-05-21T12:08:02.238Z,7
2023-05-21T12:10:02.112Z,7
2023-05-21T12:12:01.501Z,7
2023-05-21T12:14:02.109Z,5
2023-05-21T12:16:01.577Z,5
2023-05-21T12:18:02.132Z,7
2023-05-21T12:20:02.005Z,8
2023-05-21T12:22:02.518Z,8
2023-05-21T12:24:02.107Z,2
2023-05-21T12:26:02.484Z,6
2023-05-21T12:28:02.203Z,6
2023-05-21T12:30:01.934Z,5
2023-05-21T12:32:02.372Z,5
2023-05-21T12:34:01.980Z,5
2023-05-21T12:36:01.676Z,5
2023-05-21T12:38:02.070Z,5
2023-05-21T12:40:01.841Z,5
2023-05-21T12:42:02.284Z,6
2023-05-21T12:44:01.784Z,7
2023-05-21T12:46:02.330Z,7
2023-05-21T12:48:02.149Z,7
2023-05-21T12:50:02.599Z,7
2023-05-21T12:52:02.212Z,7
2023-05-21T12:54:01.837Z,7
2023-05-21T12:56:02.311Z,7
2023-05-21T12:58:01.830Z,7
2023-05-21T13:00:07.483Z,7
2023-05-21T13:02:02.025Z,7
2023-05-21T13:04:02.467Z,7
2023-05-21T13:06:02.015Z,7
2023-05-21T13:08:01.567Z,7
2023-05-21T13:10:02.423Z,7
2023-05-21T13:12:02.001Z,7
2023-05-21T13:14:01.796Z,10
2023-05-21T13:16:02.430Z,10
2023-05-21T13:18:02.080Z,10
2023-05-21T13:20:01.825Z,8
2023-05-21T13:22:02.221Z,8
2023-05-21T13:24:01.778Z,8
2023-05-21T13:26:02.422Z,5
2023-05-21T13:28:02.001Z,5
2023-05-21T13:30:02.068Z,5
2023-05-21T13:32:02.489Z,8
2023-05-21T13:34:03.679Z,8
2023-05-21T13:38:02.447Z,10
2023-05-21T13:40:02.109Z,10
2023-05-21T13:44:02.097Z,7
2023-05-21T13:46:01.675Z,7
2023-05-21T13:48:02.094Z,7
2023-05-21T13:50:01.890Z,8
2023-05-21T13:52:02.174Z,8
2023-05-21T13:54:01.671Z,8
2023-05-21T13:56:02.265Z,8
2023-05-21T13:58:01.936Z,8
2023-05-21T14:00:06.215Z,8
2023-05-21T14:04:02.024Z,7
2023-05-21T14:08:02.000Z,8
2023-05-21T14:10:02.642Z,8
2023-05-21T14:12:02.801Z,8
2023-05-21T14:14:01.787Z,8
2023-05-21T14:16:02.240Z,8
2023-05-21T14:18:01.921Z,8
2023-05-21T14:20:02.549Z,8
2023-05-21T14:22:01.879Z,8
2023-05-21T14:24:02.411Z,8
2023-05-21T14:26:01.972Z,7
2023-05-21T14:28:01.544Z,7
2023-05-21T14:30:02.267Z,7
2023-05-21T14:32:01.784Z,8
2023-05-21T14:34:02.233Z,8
2023-05-21T14:36:01.817Z,8
2023-05-21T14:38:02.243Z,7
2023-05-21T14:40:02.019Z,7
2023-05-21T14:42:02.499Z,7
2023-05-21T14:44:02.302Z,9
2023-05-21T14:46:02.068Z,9
2023-05-21T14:48:02.459Z,9
2023-05-21T14:50:02.128Z,8
2023-05-21T14:52:01.597Z,8
2023-05-21T14:54:02.258Z,8
2023-05-21T14:56:01.713Z,11
2023-05-21T14:58:02.343Z,11
2023-05-21T15:00:05.057Z,11
2023-05-21T15:04:02.681Z,8
2023-05-21T15:06:01.962Z,8
2023-05-21T15:08:02.481Z,8
2023-05-21T15:10:02.341Z,8
2023-05-21T15:12:01.740Z,8
2023-05-21T15:14:02.214Z,5
2023-05-21T15:16:01.994Z,5
2023-05-21T15:18:02.470Z,5
2023-05-21T15:20:02.257Z,5
2023-05-21T15:22:01.589Z,5
2023-05-21T15:24:02.099Z,5
2023-05-21T15:26:01.675Z,8
2023-05-21T15:28:02.213Z,8
2023-05-21T15:30:02.092Z,8
2023-05-21T15:32:02.305Z,7
2023-05-21T15:34:01.923Z,7
2023-05-21T15:36:01.711Z,7
2023-05-21T15:38:02.175Z,7
2023-05-21T15:40:02.145Z,7
2023-05-21T15:42:02.478Z,7
2023-05-21T15:44:02.014Z,5
2023-05-21T15:46:01.599Z,5
2023-05-21T15:48:02.063Z,5
2023-05-21T15:50:02.619Z,7
2023-05-21T15:52:02.127Z,7
2023-05-21T15:54:01.776Z,7
2023-05-21T15:56:02.298Z,5
2023-05-21T15:58:02.653Z,5
2023-05-21T16:00:05.510Z,5
2023-05-21T16:04:01.820Z,5
2023-05-21T16:06:02.314Z,5
2023-05-21T16:08:01.801Z,8
2023-05-21T16:10:02.423Z,8
2023-05-21T16:12:01.905Z,8
2023-05-21T16:14:01.525Z,8
2023-05-21T16:16:01.989Z,8
2023-05-21T16:18:01.643Z,8
2023-05-21T16:20:02.217Z,5
2023-05-21T16:22:01.692Z,5
2023-05-21T16:24:02.147Z,5
2023-05-21T16:26:01.590Z,6
2023-05-21T16:28:02.102Z,6
2023-05-21T16:30:01.910Z,6
2023-05-21T16:32:02.317Z,5
2023-05-21T16:34:01.920Z,5
2023-05-21T16:36:01.607Z,5
2023-05-21T16:38:02.064Z,6
2023-05-21T16:40:01.830Z,6
2023-05-21T16:42:02.305Z,6
2023-05-21T16:44:01.826Z,7
2023-05-21T16:46:02.334Z,7
2023-05-21T16:48:01.893Z,7
2023-05-21T16:50:02.593Z,6
2023-05-21T16:52:02.012Z,6
2023-05-21T16:54:01.671Z,6
2023-05-21T16:56:02.043Z,9
2023-05-21T16:58:01.716Z,9
2023-05-21T17:00:05.556Z,9
2023-05-21T17:04:02.135Z,5
2023-05-21T17:06:02.416Z,5
2023-05-21T17:08:01.906Z,8
2023-05-21T17:10:02.536Z,8
2023-05-21T17:12:01.990Z,8
2023-05-21T17:14:01.505Z,4
2023-05-21T17:16:02.133Z,4
2023-05-21T17:18:01.820Z,4
2023-05-21T17:20:02.326Z,8
2023-05-21T17:22:01.780Z,8
2023-05-21T17:24:02.469Z,8
2023-05-21T17:26:02.088Z,4
2023-05-21T17:28:01.657Z,4
2023-05-21T17:30:02.365Z,4
2023-05-21T17:32:01.679Z,9
2023-05-21T17:34:02.279Z,9
2023-05-21T17:36:02.094Z,9
2023-05-21T17:38:01.733Z,4
2023-05-21T17:40:02.650Z,4
2023-05-21T17:42:02.194Z,4
2023-05-21T17:44:01.824Z,7
2023-05-21T17:46:02.210Z,7
2023-05-21T17:48:01.858Z,7
2023-05-21T17:50:02.550Z,5
2023-05-21T17:52:01.934Z,5
2023-05-21T17:54:01.557Z,5
2023-05-21T17:56:02.066Z,8
2023-05-21T17:58:01.616Z,8
2023-05-21T18:00:05.499Z,8
2023-05-21T18:04:02.360Z,7
2023-05-21T18:06:01.760Z,7
2023-05-21T18:08:02.267Z,7
2023-05-21T18:10:02.068Z,7
2023-05-21T18:12:02.450Z,7
2023-05-21T18:14:01.999Z,7
2023-05-21T18:16:02.473Z,7
2023-05-21T18:18:02.204Z,7
2023-05-21T18:20:01.801Z,13
2023-05-21T18:22:02.275Z,13
2023-05-21T18:24:01.931Z,13
2023-05-21T18:26:02.477Z,10
2023-05-21T18:28:01.955Z,10
2023-05-21T18:30:01.672Z,10
2023-05-21T18:32:02.290Z,12
2023-05-21T18:34:01.871Z,12
2023-05-21T18:36:02.332Z,12
2023-05-21T18:38:01.928Z,7
2023-05-21T18:40:01.932Z,7
2023-05-21T18:42:12.940Z,7
2023-05-21T18:44:01.630Z,9
2023-05-21T18:46:02.306Z,9
2023-05-21T18:48:01.939Z,9
2023-05-21T18:50:02.533Z,12
2023-05-21T18:52:02.049Z,12
2023-05-21T18:54:01.537Z,12
2023-05-21T18:56:01.965Z,7
2023-05-21T18:58:01.562Z,7
2023-05-21T19:00:07.635Z,7
2023-05-21T19:02:02.227Z,7
2023-05-21T19:04:01.821Z,7
2023-05-21T19:06:01.723Z,7
2023-05-21T19:08:02.158Z,9
2023-05-21T19:10:02.016Z,9
2023-05-21T19:12:01.557Z,9
2023-05-21T19:14:01.983Z,9
2023-05-21T19:16:02.518Z,9
2023-05-21T19:18:02.058Z,9
2023-05-21T19:20:02.613Z,10
2023-05-21T19:22:02.069Z,10
2023-05-21T19:24:04.159Z,10
2023-05-21T19:28:01.893Z,7
2023-05-21T19:30:01.746Z,7
2023-05-21T19:32:02.209Z,9
2023-05-21T19:34:01.749Z,9
2023-05-21T19:36:02.437Z,9
2023-05-21T19:38:05.145Z,7
2023-05-21T19:42:02.134Z,7
2023-05-21T19:44:01.647Z,9
2023-05-21T19:46:02.228Z,9
2023-05-21T19:50:02.569Z,10
2023-05-21T19:52:02.021Z,10
2023-05-21T19:54:01.602Z,10
2023-05-21T19:56:02.380Z,9
2023-05-21T19:58:01.908Z,9
2023-05-21T20:00:05.604Z,9
2023-05-21T20:04:01.948Z,9
2023-05-21T20:06:02.269Z,9
2023-05-21T20:08:01.937Z,7
2023-05-21T20:10:02.499Z,7
2023-05-21T20:14:02.449Z,6
2023-05-21T20:16:02.044Z,6
2023-05-21T20:18:01.737Z,6
2023-05-21T20:20:02.385Z,7
2023-05-21T20:22:01.921Z,7
2023-05-21T20:24:02.514Z,7
2023-05-21T20:26:01.871Z,6
2023-05-21T20:28:02.494Z,6
2023-05-21T20:30:02.371Z,6
2023-05-21T20:32:01.659Z,7
2023-05-21T20:34:02.312Z,7
2023-05-21T20:36:01.758Z,7
2023-05-21T20:38:02.213Z,6
2023-05-21T20:40:02.218Z,6
2023-05-21T20:42:01.758Z,6
2023-05-21T20:44:02.236Z,6
2023-05-21T20:46:01.915Z,6
2023-05-21T20:48:01.628Z,6
2023-05-21T20:50:02.403Z,4
2023-05-21T20:52:01.936Z,4
2023-05-21T20:54:01.523Z,4
2023-05-21T20:56:02.074Z,6
2023-05-21T20:58:01.753Z,6
2023-05-21T21:00:08.020Z,6
2023-05-21T21:02:02.067Z,7
2023-05-21T21:04:01.696Z,7
2023-05-21T21:06:02.256Z,7
2023-05-21T21:08:01.751Z,6
2023-05-21T21:10:02.556Z,6
2023-05-21T21:12:11.293Z,6
2023-05-21T21:14:01.540Z,6
2023-05-21T21:16:02.210Z,6
2023-05-21T21:18:01.751Z,6
2023-05-21T21:20:02.410Z,5
2023-05-21T21:22:01.833Z,5
2023-05-21T21:24:01.578Z,5
2023-05-21T21:26:02.207Z,4
2023-05-21T21:28:01.807Z,4
2023-05-21T21:30:01.706Z,4
2023-05-21T21:32:02.264Z,5
2023-05-21T21:34:02.043Z,5
2023-05-21T21:36:01.671Z,5
2023-05-21T21:38:02.365Z,2
2023-05-21T21:40:02.254Z,2
2023-05-21T21:42:01.550Z,2
2023-05-21T21:44:02.116Z,5
2023-05-21T21:46:01.764Z,5
2023-05-21T21:48:02.416Z,5
2023-05-21T21:50:01.990Z,5
2023-05-21T21:52:01.606Z,5
2023-05-21T21:54:02.285Z,5
2023-05-21T21:56:01.856Z,4
2023-05-21T21:58:02.441Z,4
2023-05-21T22:00:14.071Z,4
2023-05-21T22:02:02.082Z,5
2023-05-21T22:04:01.616Z,5
2023-05-21T22:06:02.035Z,5
2023-05-21T22:08:01.808Z,5
2023-05-21T22:10:02.620Z,5
2023-05-21T22:12:02.109Z,5
2023-05-21T22:14:01.786Z,4
2023-05-21T22:16:02.268Z,4
2023-05-21T22:18:01.851Z,4
2023-05-21T22:22:02.157Z,5
2023-05-21T22:24:01.740Z,5
2023-05-21T22:26:02.257Z,5
2023-05-21T22:28:01.993Z,5
2023-05-21T22:30:01.736Z,5
2023-05-21T22:32:02.081Z,4
2023-05-21T22:34:01.701Z,4
2023-05-21T22:36:02.216Z,4
2023-05-21T22:38:01.771Z,4
2023-05-21T22:40:02.600Z,4
2023-05-21T22:42:02.212Z,4
2023-05-21T22:44:01.728Z,4
2023-05-21T22:46:02.248Z,4
2023-05-21T22:48:01.854Z,4
2023-05-21T22:50:02.542Z,4
2023-05-21T22:52:02.142Z,4
2023-05-21T22:54:01.874Z,4
2023-05-21T22:56:02.314Z,6
2023-05-21T22:58:02.062Z,6
2023-05-21T23:00:05.447Z,6
2023-05-21T23:04:02.019Z,6
2023-05-21T23:06:02.546Z,6
2023-05-21T23:08:02.077Z,7
2023-05-21T23:10:02.665Z,7
2023-05-21T23:12:02.068Z,7
2023-05-21T23:14:01.552Z,5
2023-05-21T23:16:02.274Z,5
2023-05-21T23:18:01.915Z,5
2023-05-21T23:20:02.584Z,6
2023-05-21T23:22:02.126Z,6
2023-05-21T23:24:01.495Z,6
2023-05-21T23:26:02.069Z,4
2023-05-21T23:28:01.571Z,4
2023-05-21T23:30:02.271Z,4
2023-05-21T23:32:01.638Z,7
2023-05-21T23:34:02.199Z,7
2023-05-21T23:36:01.771Z,7
2023-05-21T23:38:02.441Z,4
2023-05-21T23:40:02.172Z,4
2023-05-21T23:42:01.555Z,4
2023-05-21T23:44:02.489Z,3
2023-05-21T23:46:02.287Z,3
2023-05-21T23:48:01.772Z,3
2023-05-21T23:50:02.395Z,6
2023-05-21T23:52:01.851Z,6
2023-05-21T23:54:02.423Z,6
2023-05-21T23:56:01.881Z,4
2023-05-21T23:58:02.438Z,4
